createdAt,value
2018-05-29T00:03:47.204Z,22.70
2018-05-29T00:06:14.836Z,20.10
2018-05-29T00:08:42.390Z,22.63
2018-05-29T00:11:09.988Z,21.70
2018-05-29T00:13:37.671Z,23.07
2018-05-29T00:16:05.342Z,21.27
2018-05-29T00:18:32.949Z,21.07
2018-05-29T00:21:00.558Z,20.90
2018-05-29T00:23:28.186Z,24.50
2018-05-29T00:25:55.708Z,22.60
2018-05-29T00:28:23.316Z,20.27
2018-05-29T00:30:50.927Z,21.73
2018-05-29T00:33:18.614Z,21.97
2018-05-29T00:35:46.305Z,24.13
2018-05-29T00:38:13.919Z,20.10
2018-05-29T00:40:41.537Z,21.20
2018-05-29T00:43:09.202Z,22.30
2018-05-29T00:45:36.905Z,21.23
2018-05-29T00:48:04.491Z,20.40
2018-05-29T00:50:32.181Z,22.70
2018-05-29T00:52:59.781Z,20.90
2018-05-29T00:55:39.392Z,22.33
2018-05-29T00:58:07.162Z,20.70
2018-05-29T01:00:34.970Z,20.57
2018-05-29T01:03:06.401Z,22.47
2018-05-29T01:05:34.147Z,21.93
2018-05-29T01:08:01.774Z,21.43
2018-05-29T01:10:29.459Z,22.17
2018-05-29T01:12:57.272Z,20.80
2018-05-29T01:15:24.892Z,21.47
2018-05-29T01:17:52.412Z,22.70
2018-05-29T01:20:20.081Z,21.80
2018-05-29T01:22:47.659Z,21.87
2018-05-29T01:25:16.087Z,21.30
2018-05-29T01:27:43.696Z,22.37
2018-05-29T01:30:11.339Z,21.10
2018-05-29T01:32:39.349Z,21.00
2018-05-29T01:35:07.218Z,20.80
2018-05-29T01:37:34.896Z,21.83
2018-05-29T01:40:02.544Z,20.50
2018-05-29T01:42:30.142Z,20.50
2018-05-29T01:44:57.795Z,21.33
2018-05-29T01:47:25.410Z,19.27
2018-05-29T01:49:52.975Z,21.80
2018-05-29T01:52:41.851Z,20.10
2018-05-29T01:55:09.784Z,22.30
2018-05-29T01:57:37.399Z,21.93
2018-05-29T02:00:04.916Z,23.00
2018-05-29T02:02:34.630Z,21.97
2018-05-29T02:05:02.304Z,21.50
2018-05-29T02:07:30.233Z,22.07
2018-05-29T02:09:57.801Z,22.30
2018-05-29T02:12:25.396Z,20.07
2018-05-29T02:14:53.061Z,21.17
2018-05-29T02:17:20.604Z,22.20
2018-05-29T02:19:48.116Z,21.17
2018-05-29T02:22:15.731Z,22.40
2018-05-29T02:24:43.365Z,19.87
2018-05-29T02:27:11.911Z,21.77
2018-05-29T02:29:39.549Z,22.33
2018-05-29T02:32:07.162Z,24.07
2018-05-29T02:34:34.815Z,21.57
2018-05-29T02:39:39.433Z,20.93
2018-05-29T02:42:07.120Z,18.97
2018-05-29T02:44:34.716Z,20.60
2018-05-29T02:47:02.637Z,22.20
2018-05-29T02:49:30.676Z,20.23
2018-05-29T02:51:58.537Z,21.27
2018-05-29T02:54:26.054Z,21.00
2018-05-29T02:56:53.613Z,21.27
2018-05-29T02:59:21.621Z,23.90
2018-05-29T03:01:49.261Z,21.67
2018-05-29T03:04:16.789Z,22.93
2018-05-29T03:09:18.532Z,22.70
2018-05-29T03:11:46.131Z,22.50
2018-05-29T03:14:13.789Z,22.00
2018-05-29T03:16:41.369Z,21.43
2018-05-29T03:19:08.907Z,21.30
2018-05-29T03:21:36.498Z,21.83
2018-05-29T03:24:04.056Z,20.73
2018-05-29T03:26:31.655Z,20.43
2018-05-29T03:28:59.189Z,23.03
2018-05-29T03:31:26.717Z,20.80
2018-05-29T03:33:54.259Z,20.30
2018-05-29T03:36:21.856Z,20.90
2018-05-29T03:38:49.436Z,28.60
2018-05-29T03:41:17.075Z,26.27
2018-05-29T03:43:44.660Z,27.83
2018-05-29T03:46:12.277Z,27.23
2018-05-29T03:48:43.617Z,22.30
2018-05-29T03:51:11.225Z,19.50
2018-05-29T03:53:42.373Z,21.27
2018-05-29T03:56:09.899Z,22.67
2018-05-29T03:58:37.443Z,21.60
2018-05-29T04:01:04.976Z,22.63
2018-05-29T04:03:32.504Z,19.83
2018-05-29T04:06:00.062Z,23.40
2018-05-29T04:08:27.583Z,20.27
2018-05-29T04:10:55.107Z,20.53
2018-05-29T04:13:22.835Z,22.17
2018-05-29T04:15:50.449Z,21.20
2018-05-29T04:18:18.055Z,23.80
2018-05-29T04:20:45.601Z,23.47
2018-05-29T04:23:13.135Z,23.47
2018-05-29T04:25:40.673Z,21.30
2018-05-29T04:28:08.252Z,21.23
2018-05-29T04:30:35.879Z,20.67
2018-05-29T04:33:03.522Z,20.87
2018-05-29T04:35:31.785Z,21.63
2018-05-29T04:37:59.359Z,21.80
2018-05-29T04:40:26.987Z,22.73
2018-05-29T04:42:54.657Z,22.47
2018-05-29T04:45:22.353Z,20.50
2018-05-29T04:47:50.002Z,22.07
2018-05-29T04:50:17.601Z,21.97
2018-05-29T04:52:45.243Z,21.27
2018-05-29T04:55:12.854Z,20.47
2018-05-29T04:57:40.515Z,21.67
2018-05-29T05:00:08.067Z,21.83
2018-05-29T05:02:35.644Z,20.20
2018-05-29T05:05:03.169Z,19.50
2018-05-29T05:07:30.687Z,19.00
2018-05-29T05:09:58.257Z,21.40
2018-05-29T05:12:25.818Z,20.43
2018-05-29T05:17:27.064Z,19.80
2018-05-29T05:19:54.689Z,19.93
2018-05-29T05:22:22.201Z,18.30
2018-05-29T05:24:49.764Z,22.17
2018-05-29T05:27:17.363Z,26.60
2018-05-29T05:29:44.971Z,19.97
2018-05-29T05:32:12.617Z,22.27
2018-05-29T05:34:40.271Z,20.73
2018-05-29T05:37:07.985Z,19.80
2018-05-29T05:39:35.589Z,21.83
2018-05-29T05:42:03.196Z,21.17
2018-05-29T05:44:30.713Z,19.97
2018-05-29T05:46:58.272Z,22.70
2018-05-29T05:49:25.819Z,30.50
2018-05-29T05:51:53.388Z,22.93
2018-05-29T05:54:20.941Z,25.47
2018-05-29T05:56:48.489Z,21.37
2018-05-29T05:59:16.027Z,24.43
2018-05-29T06:01:43.543Z,21.87
2018-05-29T06:04:11.096Z,30.70
2018-05-29T06:06:38.631Z,30.37
2018-05-29T06:09:06.266Z,30.53
2018-05-29T06:11:33.901Z,30.20
2018-05-29T06:14:01.530Z,44.40
2018-05-29T06:16:29.172Z,37.80
2018-05-29T06:18:56.837Z,31.80
2018-05-29T06:21:24.508Z,29.40
2018-05-29T06:23:52.150Z,28.70
2018-05-29T06:26:19.792Z,28.80
2018-05-29T06:28:47.499Z,27.43
2018-05-29T06:31:15.130Z,25.27
2018-05-29T06:33:42.661Z,26.17
2018-05-29T06:36:10.183Z,24.17
2018-05-29T06:38:37.741Z,23.40
2018-05-29T06:41:05.248Z,21.63
2018-05-29T06:43:32.930Z,22.47
2018-05-29T06:46:00.569Z,24.97
2018-05-29T06:48:28.184Z,22.50
2018-05-29T06:50:55.870Z,23.03
2018-05-29T06:53:23.488Z,24.87
2018-05-29T06:55:51.111Z,24.10
2018-05-29T06:58:18.649Z,20.10
2018-05-29T07:00:46.239Z,25.73
2018-05-29T07:03:14.881Z,23.47
2018-05-29T07:05:43.116Z,23.13
2018-05-29T07:08:10.762Z,23.00
2018-05-29T07:10:38.399Z,22.03
2018-05-29T07:13:06.088Z,23.77
2018-05-29T07:15:33.747Z,22.07
2018-05-29T07:18:01.943Z,24.10
2018-05-29T07:20:29.537Z,22.43
2018-05-29T07:22:57.146Z,21.30
2018-05-29T07:25:24.696Z,24.60
2018-05-29T07:27:52.448Z,24.70
2018-05-29T07:30:25.511Z,25.73
2018-05-29T07:32:55.275Z,23.20
2018-05-29T07:35:23.018Z,23.87
2018-05-29T07:37:51.718Z,21.57
2018-05-29T07:40:21.863Z,22.10
2018-05-29T07:42:49.429Z,22.90
2018-05-29T07:45:18.055Z,20.07
2018-05-29T07:47:47.021Z,20.00
2018-05-29T07:50:14.889Z,20.47
2018-05-29T07:52:43.018Z,25.63
2018-05-29T07:55:11.571Z,24.87
2018-05-29T07:57:39.244Z,24.27
2018-05-29T08:00:10.839Z,23.07
2018-05-29T08:02:42.073Z,22.80
2018-05-29T08:05:10.418Z,23.20
2018-05-29T08:07:38.237Z,21.67
2018-05-29T08:10:07.061Z,21.13
2018-05-29T08:12:35.631Z,21.57
2018-05-29T08:15:04.555Z,21.33
2018-05-29T08:17:35.502Z,20.77
2018-05-29T08:20:04.251Z,23.30
2018-05-29T08:22:34.205Z,21.23
2018-05-29T08:25:02.592Z,21.27
2018-05-29T08:27:30.848Z,18.70
2018-05-29T08:30:08.601Z,21.27
2018-05-29T08:32:37.890Z,20.57
2018-05-29T08:35:05.549Z,20.67
2018-05-29T08:40:14.593Z,19.77
2018-05-29T08:47:49.887Z,22.50
2018-05-29T08:50:20.791Z,21.13
2018-05-29T08:52:49.437Z,19.60
2018-05-29T08:55:24.001Z,19.60
2018-05-29T08:57:52.283Z,19.80
2018-05-29T09:00:20.650Z,19.67
2018-05-29T09:02:57.233Z,19.10
2018-05-29T09:05:25.813Z,18.77
2018-05-29T09:07:54.433Z,18.80
2018-05-29T09:10:28.575Z,21.10
2018-05-29T09:12:58.224Z,19.93
2018-05-29T09:15:49.012Z,19.00
2018-05-29T09:20:58.286Z,19.10
2018-05-29T09:23:31.849Z,19.87
2018-05-29T09:28:50.366Z,20.30
2018-05-29T09:31:22.368Z,20.57
2018-05-29T09:33:56.895Z,21.43
2018-05-29T09:36:24.588Z,21.77
2018-05-29T09:38:53.689Z,19.40
2018-05-29T09:41:28.981Z,21.73
2018-05-29T09:43:59.799Z,19.80
2018-05-29T09:46:31.701Z,22.90
2018-05-29T09:49:00.461Z,19.27
2018-05-29T10:05:31.290Z,21.17
2018-05-29T10:08:09.554Z,20.60
2018-05-29T10:13:29.301Z,22.97
2018-05-29T10:16:11.155Z,21.13
2018-05-29T10:19:15.130Z,21.40
2018-05-29T10:22:05.242Z,21.00
2018-05-29T10:24:38.075Z,20.47
2018-05-29T10:27:07.867Z,20.07
2018-05-29T10:29:35.533Z,17.30
2018-05-29T10:32:04.338Z,19.90
2018-05-29T10:34:39.128Z,18.67
2018-05-29T10:37:22.297Z,20.73
2018-05-29T10:39:51.176Z,20.23
2018-05-29T10:42:19.584Z,20.13
2018-05-29T10:44:49.502Z,20.40
2018-05-29T10:47:29.962Z,19.40
2018-05-29T10:49:58.441Z,19.10
2018-05-29T10:52:27.853Z,19.47
2018-05-29T10:55:00.720Z,19.73
2018-05-29T10:57:29.440Z,18.30
2018-05-29T11:00:05.145Z,17.67
2018-05-29T11:08:15.555Z,18.50
2018-05-29T11:13:33.137Z,16.97
2018-05-29T11:16:03.241Z,17.10
2018-05-29T11:21:40.824Z,17.50
2018-05-29T11:24:10.204Z,17.47
2018-05-29T11:26:45.292Z,16.47
2018-05-29T11:29:14.370Z,17.57
2018-05-29T11:31:54.583Z,15.50
2018-05-29T11:34:26.699Z,15.20
2018-05-29T11:39:49.430Z,15.27
2018-05-29T11:42:30.477Z,16.50
2018-05-29T11:45:20.537Z,15.70
2018-05-29T11:47:50.113Z,14.80
2018-05-29T11:50:20.713Z,15.97
2018-05-29T11:52:49.735Z,15.37
2018-05-29T11:55:23.072Z,16.97
2018-05-29T11:57:52.832Z,15.80
2018-05-29T12:00:29.296Z,14.87
2018-05-29T12:03:03.147Z,16.60
2018-05-29T12:05:54.677Z,16.20
2018-05-29T12:08:36.092Z,15.33
2018-05-29T12:11:12.746Z,15.37
2018-05-29T12:13:45.118Z,14.77
2018-05-29T12:16:22.977Z,14.93
2018-05-29T12:18:51.244Z,14.80
2018-05-29T12:26:11.608Z,16.03
2018-05-29T12:28:47.559Z,15.20
2018-05-29T12:31:33.418Z,13.47
2018-05-29T12:48:35.377Z,14.37
2018-05-29T12:51:09.462Z,13.67
2018-05-29T13:09:12.955Z,11.93
2018-05-29T13:11:51.604Z,12.03
2018-05-29T13:14:50.211Z,15.23
2018-05-29T13:20:44.092Z,9.27
2018-05-29T14:35:35.284Z,8.27
2018-05-29T14:38:12.948Z,7.90
2018-05-29T14:40:53.727Z,8.03
2018-05-29T14:46:49.465Z,7.07
2018-05-29T14:49:17.211Z,6.57
2018-05-29T14:51:45.526Z,7.40
2018-05-29T14:54:14.977Z,8.97
2018-05-29T14:56:57.377Z,7.10
2018-05-29T15:02:26.292Z,8.10
2018-05-29T15:09:49.063Z,6.80
2018-05-29T15:14:59.500Z,8.23
2018-05-29T15:20:27.803Z,7.37
2018-05-29T15:23:05.216Z,8.63
2018-05-29T15:25:33.627Z,9.13
2018-05-29T15:28:02.227Z,14.90
2018-05-29T15:30:36.697Z,6.20
2018-05-29T15:33:16.101Z,12.70
2018-05-29T15:35:54.458Z,5.43
2018-05-29T15:38:24.625Z,6.43
2018-05-29T15:41:13.574Z,7.80
2018-05-29T15:47:05.474Z,6.80
2018-05-29T15:49:47.085Z,6.60
2018-05-29T15:52:24.381Z,6.27
2018-05-29T15:54:55.730Z,7.50
2018-05-29T16:00:45.756Z,7.03
2018-05-29T16:03:35.944Z,8.07
2018-05-29T16:06:05.820Z,8.57
2018-05-29T16:22:35.071Z,7.80
2018-05-29T16:25:11.048Z,7.40
2018-05-29T16:27:43.843Z,8.13
2018-05-29T16:30:20.891Z,11.37
2018-05-29T16:32:49.002Z,8.83
2018-05-29T16:38:04.310Z,11.30
2018-05-29T16:40:33.512Z,8.20
2018-05-29T16:43:13.686Z,8.57
2018-05-29T16:46:01.328Z,8.43
2018-05-29T16:48:29.108Z,11.23
2018-05-29T16:51:00.031Z,8.33
2018-05-29T16:53:35.727Z,7.87
2018-05-29T16:56:03.653Z,9.80
2018-05-29T16:58:33.331Z,8.10
2018-05-29T17:01:05.994Z,8.40
2018-05-29T17:03:37.952Z,9.47
2018-05-29T17:06:06.603Z,9.20
2018-05-29T17:08:36.212Z,8.10
2018-05-29T17:11:04.093Z,8.33
2018-05-29T17:13:32.526Z,9.77
2018-05-29T17:16:00.294Z,9.83
2018-05-29T17:18:28.379Z,10.47
2018-05-29T17:20:59.578Z,11.13
2018-05-29T17:23:27.312Z,9.67
2018-05-29T17:25:54.981Z,10.93
2018-05-29T17:28:23.041Z,10.00
2018-05-29T17:30:50.631Z,9.57
2018-05-29T17:33:19.504Z,8.60
2018-05-29T17:35:47.142Z,8.80
2018-05-29T17:38:14.964Z,9.73
2018-05-29T17:40:42.963Z,9.00
2018-05-29T17:43:12.174Z,9.40
2018-05-29T17:45:39.852Z,10.77
2018-05-29T17:48:07.536Z,10.47
2018-05-29T17:50:36.230Z,10.30
2018-05-29T17:53:03.905Z,10.07
2018-05-29T17:55:31.596Z,10.73
2018-05-29T17:58:00.036Z,9.70
2018-05-29T18:00:28.553Z,11.97
2018-05-29T18:02:57.128Z,16.77
2018-05-29T18:05:33.460Z,10.30
2018-05-29T18:08:01.246Z,8.83
2018-05-29T18:10:29.995Z,12.80
2018-05-29T18:12:57.741Z,10.37
2018-05-29T18:15:25.553Z,10.47
2018-05-29T18:17:53.252Z,8.83
2018-05-29T18:20:20.896Z,10.47
2018-05-29T18:22:48.831Z,12.33
2018-05-29T18:25:17.455Z,12.43
2018-05-29T18:27:45.441Z,10.80
2018-05-29T18:30:13.109Z,10.10
2018-05-29T18:32:40.948Z,10.70
2018-05-29T18:35:08.618Z,10.23
2018-05-29T18:37:36.255Z,9.77
2018-05-29T18:40:04.015Z,10.03
2018-05-29T18:42:32.297Z,10.17
2018-05-29T18:44:59.979Z,9.30
2018-05-29T18:47:27.906Z,11.70
2018-05-29T18:49:56.639Z,11.90
2018-05-29T18:52:24.389Z,11.77
2018-05-29T18:54:53.071Z,11.00
2018-05-29T18:57:20.740Z,12.63
2018-05-29T18:59:48.457Z,10.90
2018-05-29T19:02:16.193Z,10.37
2018-05-29T19:04:44.774Z,14.53
2018-05-29T19:07:12.586Z,10.20
2018-05-29T19:09:40.201Z,10.77
2018-05-29T19:12:07.961Z,11.43
2018-05-29T19:14:35.885Z,11.47
2018-05-29T19:17:03.738Z,12.70
2018-05-29T19:19:31.436Z,11.00
2018-05-29T19:21:59.058Z,10.13
2018-05-29T19:24:26.786Z,13.43
2018-05-29T19:26:54.418Z,10.50
2018-05-29T19:29:22.097Z,11.10
2018-05-29T19:31:50.220Z,15.83
2018-05-29T19:34:17.990Z,10.53
2018-05-29T19:36:45.677Z,15.50
2018-05-29T19:39:13.344Z,11.57
2018-05-29T19:41:41.049Z,15.90
2018-05-29T19:44:08.778Z,12.33
2018-05-29T19:46:36.916Z,12.40
2018-05-29T19:49:04.569Z,10.87
2018-05-29T19:51:32.488Z,11.60
2018-05-29T19:54:00.193Z,11.33
2018-05-29T19:56:27.823Z,11.97
2018-05-29T19:58:55.668Z,13.17
2018-05-29T20:01:23.389Z,20.50
2018-05-29T20:03:51.025Z,12.87
2018-05-29T20:06:18.665Z,15.03
2018-05-29T20:08:46.213Z,10.73
2018-05-29T20:11:14.365Z,14.87
2018-05-29T20:13:42.128Z,10.67
2018-05-29T20:16:09.754Z,10.97
2018-05-29T20:18:37.493Z,12.90
2018-05-29T20:21:05.132Z,12.27
2018-05-29T20:23:32.818Z,11.67
2018-05-29T20:26:00.434Z,10.47
2018-05-29T20:28:28.289Z,12.03
2018-05-29T20:30:56.110Z,11.97
2018-05-29T20:33:23.797Z,12.50
2018-05-29T20:35:51.490Z,11.60
2018-05-29T20:38:19.144Z,13.07
2018-05-29T20:40:46.745Z,10.63
2018-05-29T20:43:14.390Z,13.93
2018-05-29T20:45:42.103Z,12.57
2018-05-29T20:48:09.815Z,12.70
2018-05-29T20:50:37.497Z,12.57
2018-05-29T20:53:05.128Z,12.00
2018-05-29T20:55:32.746Z,11.67
2018-05-29T20:58:00.412Z,12.00
2018-05-29T21:00:28.744Z,12.40
2018-05-29T21:02:56.444Z,12.23
2018-05-29T21:05:24.093Z,12.50
2018-05-29T21:07:51.759Z,14.17
2018-05-29T21:10:19.327Z,11.67
2018-05-29T21:12:46.879Z,12.17
2018-05-29T21:15:14.559Z,12.13
2018-05-29T21:17:42.236Z,13.00
2018-05-29T21:20:10.100Z,11.80
2018-05-29T21:22:37.728Z,10.97
2018-05-29T21:25:05.497Z,13.17
2018-05-29T21:27:33.160Z,11.00
2018-05-29T21:30:01.948Z,11.70
2018-05-29T21:32:29.717Z,12.57
2018-05-29T21:34:57.375Z,12.23
2018-05-29T21:37:25.128Z,13.07
2018-05-29T21:39:53.227Z,11.90
2018-05-29T21:42:21.977Z,11.83
2018-05-29T21:44:49.666Z,11.47
2018-05-29T21:47:18.612Z,11.73
2018-05-29T21:49:46.329Z,11.57
2018-05-29T21:52:14.039Z,13.07
2018-05-29T21:54:41.685Z,12.77
2018-05-29T21:57:09.710Z,11.50
2018-05-29T21:59:38.458Z,12.23
2018-05-29T22:02:06.201Z,12.27
2018-05-29T22:04:33.974Z,12.80
2018-05-29T22:07:01.633Z,12.57
2018-05-29T22:09:29.546Z,13.27
2018-05-29T22:11:57.266Z,11.90
2018-05-29T22:14:25.078Z,14.03
2018-05-29T22:16:52.691Z,12.80
2018-05-29T22:19:22.178Z,13.00
2018-05-29T22:21:49.879Z,13.07
2018-05-29T22:24:17.492Z,14.10
2018-05-29T22:26:45.330Z,12.80
2018-05-29T22:29:13.105Z,14.57
2018-05-29T22:31:41.216Z,14.67
2018-05-29T22:34:08.953Z,13.43
2018-05-29T22:36:36.512Z,14.73
2018-05-29T22:39:04.361Z,14.37
2018-05-29T22:41:32.472Z,13.30
2018-05-29T22:44:00.207Z,16.10
2018-05-29T22:46:27.936Z,15.90
2018-05-29T22:48:55.576Z,23.23
2018-05-29T22:51:23.286Z,13.80
2018-05-29T22:53:51.305Z,12.97
2018-05-29T22:56:18.880Z,14.60
2018-05-29T22:58:46.450Z,12.53
2018-05-29T23:01:14.057Z,14.87
2018-05-29T23:03:41.674Z,13.63
2018-05-29T23:06:09.254Z,13.90
2018-05-29T23:08:36.971Z,13.13
2018-05-29T23:11:04.853Z,13.57
2018-05-29T23:13:32.625Z,13.43
2018-05-29T23:16:00.328Z,13.73
2018-05-29T23:18:28.854Z,14.60
2018-05-29T23:20:56.496Z,13.17
2018-05-29T23:23:25.210Z,13.50
2018-05-29T23:25:52.884Z,13.80
2018-05-29T23:28:20.571Z,19.23
2018-05-29T23:30:48.228Z,13.80
2018-05-29T23:33:16.142Z,13.80
2018-05-29T23:35:44.710Z,14.20
2018-05-29T23:38:12.341Z,14.53
2018-05-29T23:40:40.013Z,14.50
2018-05-29T23:43:08.535Z,13.33
2018-05-29T23:45:36.252Z,14.10
2018-05-29T23:48:04.296Z,13.70
2018-05-29T23:50:31.979Z,14.83
2018-05-29T23:52:59.564Z,15.17
2018-05-29T23:55:27.174Z,14.33
2018-05-29T23:57:54.861Z,15.20
